Time;durP1;ratioP1;P1;durP2;ratioP2;P2;SDS_P1;SDS_P2;PMS_P1;PMS_P2;Temp;Humidity;BMP_temperature;BMP_pressure;BME280_temperature;BME280_humidity;BME280_pressure;Samples;Min_cycle;Max_cycle;Signal;HPM_P1;HPM_P2
2022/05/05 00:02:04;;;;;;;;;;;;;;;-143.79;100.00;62634.88;5074544;28;19916;-47
2022/05/05 00:04:30;;;;;;;;;;;;;;;-143.79;100.00;62634.88;5074541;28;19920;-50
2022/05/05 00:06:56;;;;;;;;;;;;;;;-143.79;100.00;62634.88;5074321;28;19923;-48
2022/05/05 00:09:22;;;;;;;;;;;;;;;-143.79;100.00;62634.88;5074338;28;19968;-49
2022/05/05 00:14:32;;;;;;;;;;;19.80;90.90;;;-143.79;100.00;62634.88;5074190;28;20393;-48
2022/05/05 00:17:06;;;;;;;;;;;19.80;90.90;;;-143.79;100.00;62634.88;5074093;28;19924;-48
2022/05/05 00:19:34;;;;;;;;;;;19.80;90.00;;;-143.79;100.00;62634.88;5073881;28;20336;-48
2022/05/05 00:22:00;;;;;;;;;;;;;;;-143.79;100.00;62634.88;5074215;28;19916;-47
2022/05/05 00:24:26;;;;;;;;;;;;;;;-143.79;100.00;62634.88;5074007;28;20011;-48
2022/05/05 00:26:52;;;;;;;;;;;19.80;88.00;;;-143.79;100.00;62634.88;5073895;28;19970;-47
2022/05/05 00:29:18;;;;;;;;;;;;;;;-143.79;100.00;62634.88;5073878;28;19952;-48
2022/05/05 00:31:45;;;;;;;;;;;;;;;-143.79;100.00;62634.88;5073738;28;19970;-49
2022/05/05 00:34:10;;;;;;;;;;;19.70;90.80;;;-143.79;100.00;62634.88;5073756;28;19924;-48
2022/05/05 00:36:37;;;;;;;;;;;19.80;90.90;;;-143.79;100.00;62634.88;5073452;28;20295;-47
2022/05/05 00:39:03;;;;;;;;;;;19.70;90.80;;;-143.79;100.00;62634.88;5073774;28;20023;-51
2022/05/05 00:41:35;;;;;;;;;;;;;;;-143.79;100.00;62634.88;5073560;28;19962;-49
2022/05/05 00:44:02;;;;;;;;;;;;;;;-143.79;100.00;62634.88;5073450;28;19966;-48
2022/05/05 00:46:28;;;;;;;;;;;;;;;-143.79;100.00;62634.88;5073488;28;19999;-47
2022/05/05 00:48:55;;;;;;;;;;;19.80;88.50;;;-143.79;100.00;62634.88;5073361;28;19912;-49
2022/05/05 00:51:20;;;;;;;;;;;19.80;91.00;;;-143.79;100.00;62634.88;5073624;28;20011;-48
2022/05/05 00:53:46;;;;;;;;;;;;;;;-143.79;100.00;62634.88;5073262;28;20383;-48
2022/05/05 00:56:14;;;;;;;;;;;;;;;-143.79;100.00;62634.88;5073276;28;19921;-49
2022/05/05 00:58:42;;;;;;;;;;;;;;;-143.79;100.00;62634.88;5073206;28;19916;-48
2022/05/05 01:01:08;;;;;;;;;;;19.70;90.90;;;-143.79;100.00;62634.88;5073269;28;19916;-48
2022/05/05 01:03:35;;;;;;;;;;;19.70;90.90;;;-143.79;100.00;62634.88;5073123;28;19916;-49
2022/05/05 01:06:02;;;;;;;;;;;19.70;90.80;;;-143.79;100.00;62634.88;5073354;28;20294;-49
2022/05/05 01:08:28;;;;;;;;;;;;;;;-143.79;100.00;62634.88;5073083;28;20454;-47
2022/05/05 01:10:54;;;;;;;;;;;;;;;-143.79;100.00;62634.88;5072996;28;20000;-48
2022/05/05 01:13:20;;;;;;;;;;;;;;;-143.79;100.00;62634.88;5073311;28;19916;-48
2022/05/05 01:15:46;;;;;;;;;;;;;;;-143.79;100.00;62634.88;5055131;28;19938;-48
2022/05/05 01:18:12;;;;;;;;;;;;;;;-143.79;100.00;62634.88;5055028;28;20019;-49
2022/05/05 01:20:48;;;;;;;;;;;;;;;-143.79;100.00;62634.88;5072950;28;19922;-49
2022/05/05 01:23:14;;;;;;;;;;;;;;;-143.79;100.00;62634.88;5072968;28;19919;-48
2022/05/05 01:28:24;;;;;;;;;;;19.60;89.90;;;-143.79;100.00;62634.88;5072886;28;19919;-48
2022/05/05 01:30:50;;;;;;;;;;;19.70;90.80;;;-143.79;100.00;62634.88;5072975;28;19920;-47
2022/05/05 01:33:21;;;;;;;;;;;19.70;91.00;;;-143.79;100.00;62634.88;5072781;28;20373;-48
2022/05/05 01:35:48;;;;;;;;;;;;;;;-143.79;100.00;62634.88;5072753;28;19948;-49
2022/05/05 01:38:16;;;;;;;;;;;19.70;90.80;;;-143.79;100.00;62634.88;5072545;28;19921;-56
2022/05/05 01:40:46;;;;;;;;;;;19.60;90.10;;;-143.79;100.00;62634.88;5072766;28;19986;-56
2022/05/05 01:43:12;;;;;;;;;;;;;;;-143.79;100.00;62634.88;5072691;28;19917;-55
2022/05/05 01:45:38;;;;;;;;;;;;;;;-143.79;100.00;62634.88;5072585;28;19921;-56
2022/05/05 01:48:04;;;;;;;;;;;;;;;-143.79;100.00;62634.88;5072863;28;20378;-56
2022/05/05 01:50:33;;;;;;;;;;;19.50;90.60;;;-143.79;100.00;62634.88;5072502;28;19959;-55
2022/05/05 01:52:59;;;;;;;;;;;19.50;90.90;;;-143.79;100.00;62634.88;5072520;28;19924;-57
2022/05/05 01:55:26;;;;;;;;;;;19.50;91.00;;;-143.79;100.00;62634.88;5072519;28;19916;-56
2022/05/05 01:57:52;;;;;;;;;;;;;;;-143.79;100.00;62634.88;5072503;28;19917;-50
2022/05/05 02:00:18;;;;;;;;;;;;;;;-143.79;100.00;62634.88;5072403;28;20294;-47
2022/05/05 02:02:45;;;;;;;;;;;19.50;90.10;;;-143.79;100.00;62634.88;5072619;28;20329;-48
2022/05/05 02:05:11;;;;;;;;;;;19.50;91.00;;;-143.79;100.00;62634.88;5072560;28;20373;-48
2022/05/05 02:07:37;;;;;;;;;;;19.50;91.10;;;-143.79;100.00;62634.88;5072347;28;19917;-48
2022/05/05 02:10:05;;;;;;;;;;;19.50;91.00;;;-143.79;100.00;62634.88;5072390;28;19916;-47
2022/05/05 02:12:31;;;;;;;;;;;19.50;91.00;;;-143.79;100.00;62634.88;5072311;28;19982;-48
2022/05/05 02:14:57;;;;;;;;;;;;;;;-143.79;100.00;62634.88;5072391;28;20070;-52
2022/05/05 02:17:23;;;;;;;;;;;19.60;91.00;;;-143.79;100.00;62634.88;5072363;28;20383;-56
2022/05/05 02:19:49;;;;;;;;;;;19.50;88.40;;;-143.79;100.00;62634.88;5072260;28;19958;-55
2022/05/05 02:22:15;;;;;;;;;;;19.50;90.60;;;-143.79;100.00;62634.88;5072164;28;20390;-55
2022/05/05 02:24:41;;;;;;;;;;;19.50;89.80;;;-143.79;100.00;62634.88;5072203;28;19924;-55
2022/05/05 02:27:08;;;;;;;;;;;;;;;-143.79;100.00;62634.88;5072178;28;19917;-55
2022/05/05 02:29:34;;;;;;;;;;;19.50;90.90;;;-143.79;100.00;62634.88;5072427;28;19917;-56
2022/05/05 02:32:00;;;;;;;;;;;;;;;-143.79;100.00;62634.88;5072110;28;19917;-56
2022/05/05 02:34:26;;;;;;;;;;;;;;;-143.79;100.00;62634.88;5072104;28;20375;-55
2022/05/05 02:39:36;;;;;;;;;;;19.50;91.10;;;-143.79;100.00;62634.88;5075811;28;19978;-55
2022/05/05 02:42:03;;;;;;;;;;;;;;;-143.79;100.00;62634.88;5075823;28;20391;-55
2022/05/05 02:44:29;;;;;;;;;;;;;;;-143.79;100.00;62634.88;5075621;28;19966;-55
2022/05/05 02:46:55;;;;;;;;;;;;;;;-143.79;100.00;62634.88;5075795;28;20371;-56
2022/05/05 02:49:21;;;;;;;;;;;;;;;-143.79;100.00;62634.88;5075695;28;19944;-56
2022/05/05 02:51:46;;;;;;;;;;;19.50;91.10;;;-143.79;100.00;62634.88;5075719;28;20022;-55
2022/05/05 02:56:56;;;;;;;;;;;;;;;-143.79;100.00;62634.88;5075963;28;19922;-48
2022/05/05 02:59:22;;;;;;;;;;;;;;;-143.79;100.00;62634.88;5075431;28;20003;-48
2022/05/05 03:01:48;;;;;;;;;;;;;;;-143.79;100.00;62634.88;5075444;28;19920;-48
2022/05/05 03:04:14;;;;;;;;;;;;;;;-143.79;100.00;62634.88;5075475;28;19917;-47
2022/05/05 03:06:40;;;;;;;;;;;;;;;-143.79;100.00;62634.88;5075349;28;20378;-47
2022/05/05 03:09:06;;;;;;;;;;;;;;;-143.79;100.00;62634.88;5075369;28;19917;-49
2022/05/05 03:11:33;;;;;;;;;;;;;;;-143.79;100.00;62634.88;5075367;28;19971;-56
2022/05/05 03:13:58;;;;;;;;;;;19.40;91.10;;;-143.79;100.00;62634.88;5075361;28;19923;-55
2022/05/05 03:16:24;;;;;;;;;;;;;;;-143.79;100.00;62634.88;5075200;28;20298;-55
2022/05/05 03:18:50;;;;;;;;;;;19.30;90.40;;;-143.79;100.00;62634.88;5075149;28;20325;-55
2022/05/05 03:21:16;;;;;;;;;;;;;;;-143.79;100.00;62634.88;5075120;28;20333;-56
2022/05/05 03:23:42;;;;;;;;;;;;;;;-143.79;100.00;62634.88;5075041;28;20352;-56
2022/05/05 03:26:08;;;;;;;;;;;;;;;-143.79;100.00;62634.88;5075078;28;19939;-56
2022/05/05 03:28:34;;;;;;;;;;;;;;;-143.79;100.00;62634.88;5074970;28;19923;-55
2022/05/05 03:31:00;;;;;;;;;;;;;;;-143.79;100.00;62634.88;5075234;28;20006;-48
2022/05/05 03:33:26;;;;;;;;;;;;;;;-143.79;100.00;62634.88;5074925;28;20024;-47
2022/05/05 03:35:52;;;;;;;;;;;;;;;-143.79;100.00;62634.88;5074853;28;19962;-48
2022/05/05 03:38:18;;;;;;;;;;;;;;;-143.79;100.00;62634.88;5074621;28;19920;-48
2022/05/05 03:40:45;;;;;;;;;;;;;;;-143.79;100.00;62634.88;5074740;28;19966;-47
2022/05/05 03:43:11;;;;;;;;;;;;;;;-143.79;100.00;62634.88;5074807;28;20294;-48
2022/05/05 03:45:36;;;;;;;;;;;19.30;89.90;;;-143.79;100.00;62634.88;5074672;28;19923;-48
2022/05/05 03:48:02;;;;;;;;;;;;;;;-143.79;100.00;62634.88;5074141;28;20296;-56
2022/05/05 03:50:28;;;;;;;;;;;19.30;91.10;;;-143.79;100.00;62634.88;5074632;28;20298;-56
2022/05/05 03:52:54;;;;;;;;;;;;;;;-143.79;100.00;62634.88;5074802;28;19917;-55
2022/05/05 03:55:20;;;;;;;;;;;;;;;-143.79;100.00;62634.88;5074758;28;19916;-56
2022/05/05 03:57:48;;;;;;;;;;;;;;;-143.79;100.00;62634.88;5074318;28;19923;-56
2022/05/05 04:00:14;;;;;;;;;;;;;;;-143.79;100.00;62634.88;5074379;28;19917;-56
2022/05/05 04:02:40;;;;;;;;;;;19.20;90.20;;;-143.79;100.00;62634.88;5074492;28;20132;-55
2022/05/05 04:05:06;;;;;;;;;;;;;;;-143.79;100.00;62634.88;5074302;28;20297;-56
2022/05/05 04:07:32;;;;;;;;;;;;;;;-143.79;100.00;62634.88;5074205;28;19916;-55
2022/05/05 04:09:58;;;;;;;;;;;;;;;-143.79;100.00;62634.88;5074207;28;19943;-56
2022/05/05 04:12:24;;;;;;;;;;;;;;;-143.79;100.00;62634.88;5074122;28;20370;-56
2022/05/05 04:14:51;;;;;;;;;;;;;;;-143.79;100.00;62634.88;5074304;28;19969;-56
2022/05/05 04:17:17;;;;;;;;;;;;;;;-143.79;100.00;62634.88;5074018;28;19916;-54
2022/05/05 04:19:43;;;;;;;;;;;19.20;91.10;;;-143.79;100.00;62634.88;5073904;28;19917;-55
2022/05/05 04:22:09;;;;;;;;;;;;;;;-143.79;100.00;62634.88;5073965;28;19916;-55
2022/05/05 04:24:34;;;;;;;;;;;19.20;91.20;;;-143.79;100.00;62634.88;5073996;28;19917;-56
2022/05/05 04:27:01;;;;;;;;;;;;;;;-143.79;100.00;62634.88;5073943;28;19924;-55
2022/05/05 04:29:27;;;;;;;;;;;19.20;91.20;;;-143.79;100.00;62634.88;5073785;28;20401;-56
2022/05/05 04:31:53;;;;;;;;;;;;;;;-143.79;100.00;62634.88;5073766;28;19924;-55
2022/05/05 04:34:19;;;;;;;;;;;19.40;90.80;;;-143.79;100.00;62634.88;5073724;28;20001;-56
2022/05/05 04:36:44;;;;;;;;;;;;;;;-143.79;100.00;62634.88;5073419;28;19913;-56
2022/05/05 04:39:10;;;;;;;;;;;;;;;-143.79;100.00;62634.88;5073573;28;19920;-57
2022/05/05 04:41:36;;;;;;;;;;;;;;;-143.79;100.00;62634.88;5073563;28;20016;-55
2022/05/05 04:44:02;;;;;;;;;;;;;;;-143.79;100.00;62634.88;5073555;28;19916;-57
2022/05/05 04:46:28;;;;;;;;;;;;;;;-143.79;100.00;62634.88;5073758;28;19916;-56
2022/05/05 04:48:56;;;;;;;;;;;;;;;-143.79;100.00;62634.88;5073638;28;19923;-55
2022/05/05 04:51:22;;;;;;;;;;;;;;;-143.79;100.00;62634.88;5073666;28;19923;-55
2022/05/05 04:53:48;;;;;;;;;;;;;;;-143.79;100.00;62634.88;5073311;28;19916;-56
2022/05/05 04:56:14;;;;;;;;;;;;;;;-143.79;100.00;62634.88;5073281;28;19916;-55
2022/05/05 04:58:41;;;;;;;;;;;;;;;-143.79;100.00;62634.88;5073096;28;19974;-56
2022/05/05 05:01:06;;;;;;;;;;;;;;;-143.79;100.00;62634.88;5073175;28;19917;-55
2022/05/05 05:03:32;;;;;;;;;;;;;;;-143.79;100.00;62634.88;5073241;28;19916;-56
2022/05/05 05:05:58;;;;;;;;;;;19.10;91.20;;;-143.79;100.00;62634.88;5073149;28;19912;-56
2022/05/05 05:08:24;;;;;;;;;;;19.20;91.20;;;-143.79;100.00;62634.88;5073359;28;20267;-56
2022/05/05 05:10:50;;;;;;;;;;;19.20;90.30;;;-143.79;100.00;62634.88;5073056;28;19924;-55
2022/05/05 05:13:16;;;;;;;;;;;;;;;-143.79;100.00;62634.88;5072982;28;19923;-56
2022/05/05 05:15:42;;;;;;;;;;;;;;;-143.79;100.00;62634.88;5072990;28;20507;-56
2022/05/05 05:18:08;;;;;;;;;;;;;;;-143.79;100.00;62634.88;5072898;28;19917;-55
2022/05/05 05:20:33;;;;;;;;;;;19.20;91.30;;;-143.79;100.00;62634.88;5072922;28;19922;-55
2022/05/05 05:22:59;;;;;;;;;;;19.10;90.90;;;-143.79;100.00;62634.88;5072870;28;19924;-56
2022/05/05 05:25:25;;;;;;;;;;;;;;;-143.79;100.00;62634.88;5072856;28;19970;-56
2022/05/05 05:27:50;;;;;;;;;;;19.20;91.20;;;-143.79;100.00;62634.88;5072789;28;19927;-55
2022/05/05 05:30:16;;;;;;;;;;;;;;;-143.79;100.00;62634.88;5072738;28;19952;-56
2022/05/05 05:32:42;;;;;;;;;;;19.20;88.90;;;-143.79;100.00;62634.88;5072710;28;19970;-56
2022/05/05 05:35:08;;;;;;;;;;;;;;;-143.79;100.00;62634.88;5072707;28;19925;-55
2022/05/05 05:37:34;;;;;;;;;;;;;;;-143.79;100.00;62634.88;5072496;28;20294;-55
2022/05/05 05:40:00;;;;;;;;;;;;;;;-143.79;100.00;62634.88;5072430;28;19916;-49
2022/05/05 05:42:26;;;;;;;;;;;;;;;-143.79;100.00;62634.88;5072752;28;19959;-48
2022/05/05 05:44:52;;;;;;;;;;;;;;;-143.79;100.00;62634.88;5072489;28;20359;-48
2022/05/05 05:47:18;;;;;;;;;;;;;;;-143.79;100.00;62634.88;5072415;28;19920;-48
2022/05/05 05:49:44;;;;;;;;;;;;;;;-143.79;100.00;62634.88;5072658;28;19932;-46
2022/05/05 05:52:10;;;;;;;;;;;;;;;-143.79;100.00;62634.88;5072323;28;20372;-48
2022/05/05 05:54:36;;;;;;;;;;;;;;;-143.79;100.00;62634.88;5072346;28;19917;-48
2022/05/05 05:57:02;;;;;;;;;;;;;;;-143.79;100.00;62634.88;5072345;28;19916;-54
2022/05/05 05:59:28;;;;;;;;;;;;;;;-143.79;100.00;62634.88;5072537;28;20301;-54
2022/05/05 06:04:38;;;;;;;;;;;19.20;90.20;;;-143.79;100.00;62634.88;5072283;28;19924;-55
2022/05/05 06:07:04;;;;;;;;;;;;;;;-143.79;100.00;62634.88;5072228;28;19913;-53
2022/05/05 06:09:30;;;;;;;;;;;;;;;-143.79;100.00;62634.88;5072202;28;19931;-54
2022/05/05 06:11:56;;;;;;;;;;;;;;;-143.79;100.00;62634.88;5075374;28;19960;-54
2022/05/05 06:14:21;;;;;;;;;;;19.10;91.40;;;-143.79;100.00;62634.88;5076245;28;19940;-47
2022/05/05 06:16:47;;;;;;;;;;;;;;;-143.79;100.00;62634.88;5076300;28;19952;-52
2022/05/05 06:19:13;;;;;;;;;;;;;;;-143.79;100.00;62634.88;5076039;28;19916;-53
2022/05/05 06:21:39;;;;;;;;;;;19.10;91.50;;;-143.79;100.00;62634.88;5076091;28;19916;-54
2022/05/05 06:24:05;;;;;;;;;;;;;;;-143.79;100.00;62634.88;5076294;28;20274;-56
2022/05/05 06:26:32;;;;;;;;;;;;;;;-143.79;100.00;62634.88;5076002;28;19920;-55
2022/05/05 06:28:58;;;;;;;;;;;;;;;-143.79;100.00;62634.88;5076373;28;19982;-53
2022/05/05 06:31:24;;;;;;;;;;;;;;;-143.79;100.00;62634.88;5076088;28;20322;-53
2022/05/05 06:33:50;;;;;;;;;;;;;;;-143.79;100.00;62634.88;5076373;28;19917;-54
2022/05/05 06:36:16;;;;;;;;;;;;;;;-143.79;100.00;62634.88;5075745;28;20374;-53
2022/05/05 06:38:42;;;;;;;;;;;;;;;-143.79;100.00;62634.88;5075531;28;19928;-54
2022/05/05 06:41:08;;;;;;;;;;;;;;;-143.79;100.00;62634.88;5074881;28;19924;-54
2022/05/05 06:43:34;;;;;;;;;;;;;;;-143.79;100.00;62634.88;5073961;28;19916;-52
2022/05/05 06:46:00;;;;;;;;;;;19.20;90.20;;;-143.79;100.00;62634.88;5074765;28;19917;-57
2022/05/05 06:48:26;;;;;;;;;;;;;;;-143.79;100.00;62634.88;5074732;28;19924;-57
2022/05/05 06:50:52;;;;;;;;;;;;;;;-143.79;100.00;62634.88;5075487;28;20465;-56
2022/05/05 06:53:18;;;;;;;;;;;;;;;-143.79;100.00;62634.88;5075694;28;19918;-57
2022/05/05 06:55:44;;;;;;;;;;;;;;;-143.79;100.00;62634.88;5075599;28;19920;-55
2022/05/05 06:58:10;;;;;;;;;;;;;;;-143.79;100.00;62634.88;5075354;28;19920;-60
2022/05/05 07:03:20;;;;;;;;;;;19.10;90.10;;;-143.79;100.00;62634.88;5075523;28;19935;-59
2022/05/05 07:05:46;;;;;;;;;;;;;;;-143.79;100.00;62634.88;5075564;28;19917;-59
2022/05/05 07:08:12;;;;;;;;;;;;;;;-143.79;100.00;62634.88;5075426;28;20328;-59
2022/05/05 07:10:53;;;;;;;;;;;;;;;-143.79;100.00;62634.88;5075702;28;19974;-59
2022/05/05 07:13:22;;;;;;;;;;;;;;;-143.79;100.00;62634.88;5075402;28;19917;-59
2022/05/05 07:15:48;;;;;;;;;;;;;;;-143.79;100.00;62634.88;5075350;28;19924;-59
2022/05/05 07:18:15;;;;;;;;;;;;;;;-143.79;100.00;62634.88;5075742;28;20297;-59
2022/05/05 07:20:40;;;;;;;;;;;19.00;92.20;;;-143.79;100.00;62634.88;5075084;28;19972;-59
2022/05/05 07:23:11;;;;;;;;;;;;;;;-143.79;100.00;62634.88;5074274;28;19948;-59
2022/05/05 07:25:37;;;;;;;;;;;19.10;92.00;;;-143.79;100.00;62634.88;5075315;28;19919;-59
2022/05/05 07:28:03;;;;;;;;;;;;;;;-143.79;100.00;62634.88;5074977;28;19999;-60
2022/05/05 07:30:29;;;;;;;;;;;;;;;-143.79;100.00;62634.88;5075024;28;19952;-59
2022/05/05 07:32:55;;;;;;;;;;;18.80;92.10;;;-143.79;100.00;62634.88;5075014;28;20005;-59
2022/05/05 07:35:21;;;;;;;;;;;;;;;-143.79;100.00;62634.88;5074912;28;19924;-59
2022/05/05 07:37:46;;;;;;;;;;;19.10;92.20;;;-143.79;100.00;62634.88;5074696;28;19928;-59
2022/05/05 07:40:12;;;;;;;;;;;;;;;-143.79;100.00;62634.88;5074903;28;20379;-60
2022/05/05 07:42:41;;;;;;;;;;;;;;;-143.79;100.00;62634.88;5074779;28;19916;-61
2022/05/05 07:45:07;;;;;;;;;;;;;;;-143.79;100.00;62634.88;5057489;28;19916;-59
2022/05/05 07:47:33;;;;;;;;;;;18.80;92.10;;;-143.79;100.00;62634.88;5074630;28;19916;-62
2022/05/05 07:50:00;;;;;;;;;;;;;;;-143.79;100.00;62634.88;5074961;28;20015;-59
2022/05/05 07:52:26;;;;;;;;;;;;;;;-143.79;100.00;62634.88;5074961;28;20355;-59
2022/05/05 07:54:53;;;;;;;;;;;;;;;-143.79;100.00;62634.88;5074507;28;20406;-59
2022/05/05 07:57:20;;;;;;;;;;;;;;;-143.79;100.00;62634.88;5074537;28;19960;-60
2022/05/05 07:59:46;;;;;;;;;;;;;;;-143.79;100.00;62634.88;5074264;28;19916;-60
2022/05/05 08:02:15;;;;;;;;;;;19.00;90.50;;;-143.79;100.00;62634.88;5074363;28;20016;-60
2022/05/05 08:04:42;;;;;;;;;;;;;;;-143.79;100.00;62634.88;5074301;28;19978;-60
2022/05/05 08:07:08;;;;;;;;;;;;;;;-143.79;100.00;62634.88;5074523;28;19923;-59
2022/05/05 08:09:34;;;;;;;;;;;;;;;-143.79;100.00;62634.88;5074223;28;19957;-59
2022/05/05 08:12:00;;;;;;;;;;;;;;;-143.79;100.00;62634.88;5074254;28;19923;-59
2022/05/05 08:14:27;;;;;;;;;;;;;;;-143.79;100.00;62634.88;5074220;28;19921;-59
2022/05/05 08:16:53;;;;;;;;;;;;;;;-143.79;100.00;62634.88;5074350;28;20302;-59
2022/05/05 08:19:20;;;;;;;;;;;;;;;-143.79;100.00;62634.88;5073774;28;19916;-60
2022/05/05 08:21:46;;;;;;;;;;;19.10;91.20;;;-143.79;100.00;62634.88;5074227;28;19916;-60
2022/05/05 08:29:59;;;;;;;;;;;;;;;-143.79;100.00;62634.88;5074057;28;19943;-59
2022/05/05 08:32:24;;;;;;;;;;;19.10;91.60;;;-143.79;100.00;62634.88;5073841;28;19917;-59
2022/05/05 08:34:50;;;;;;;;;;;19.30;91.00;;;-143.79;100.00;62634.88;5073727;28;19929;-59
2022/05/05 08:37:16;;;;;;;;;;;;;;;-143.79;100.00;62634.88;5073528;28;19947;-60
2022/05/05 08:39:44;;;;;;;;;;;;;;;-143.79;100.00;62634.88;5073597;28;19916;-59
2022/05/05 08:42:10;;;;;;;;;;;;;;;-143.79;100.00;62634.88;5073912;28;19939;-59
2022/05/05 08:44:36;;;;;;;;;;;;;;;-143.79;100.00;62634.88;5073669;28;20313;-59
2022/05/05 08:47:02;;;;;;;;;;;;;;;-143.79;100.00;62634.88;5073593;28;19959;-60
2022/05/05 08:49:28;;;;;;;;;;;;;;;-143.79;100.00;62634.88;5055678;28;19916;-60
2022/05/05 08:51:54;;;;;;;;;;;;;;;-143.79;100.00;62634.88;5055546;28;19935;-59
2022/05/05 08:54:23;;;;;;;;;;;;;;;-143.79;100.00;62634.88;5073689;28;20054;-60
2022/05/05 08:56:50;;;;;;;;;;;19.50;92.00;;;-143.79;100.00;62634.88;5073538;28;19919;-59
2022/05/05 08:59:16;;;;;;;;;;;;;;;-143.79;100.00;62634.88;5073513;28;20015;-60
2022/05/05 09:01:42;;;;;;;;;;;;;;;-143.79;100.00;62634.88;5073158;28;19917;-59
2022/05/05 09:04:09;;;;;;;;;;;19.10;90.80;;;-143.79;100.00;62634.88;5073210;28;19923;-59
2022/05/05 09:06:44;;;;;;;;;;;;;;;-143.79;100.00;62634.88;5055795;28;20295;-60
2022/05/05 09:09:28;;;;;;;;;;;;;;;-143.79;100.00;62634.88;5073067;28;19920;-59
2022/05/05 09:12:23;;;;;;;;;;;;;;;-143.79;100.00;62634.88;5073073;28;20417;-59
2022/05/05 09:14:52;;;;;;;;;;;19.10;91.90;;;-143.79;100.00;62634.88;5059893;28;19923;-60
2022/05/05 09:17:19;;;;;;;;;;;;;;;-143.79;100.00;62634.88;5073004;28;20315;-59
2022/05/05 09:19:52;;;;;;;;;;;19.30;91.90;;;-143.79;100.00;62634.88;5072926;28;19979;-60
2022/05/05 09:22:19;;;;;;;;;;;;;;;-143.79;100.00;62634.88;5073542;28;19948;-59
2022/05/05 09:24:49;;;;;;;;;;;;;;;-143.79;100.00;62634.88;5073088;28;19923;-46
2022/05/05 09:27:27;;;;;;;;;;;;;;;-143.79;100.00;62634.88;5073107;28;19969;-46
2022/05/05 09:30:13;;;;;;;;;;;19.30;91.40;;;-143.79;100.00;62634.88;5073069;28;19920;-47
2022/05/05 09:32:44;;;;;;;;;;;19.40;91.80;;;-143.79;100.00;62634.88;5072813;28;19920;-46
2022/05/05 09:35:19;;;;;;;;;;;;;;;-143.79;100.00;62634.88;5072761;28;20286;-47
2022/05/05 09:37:47;;;;;;;;;;;;;;;-143.79;100.00;62634.88;5072714;28;20268;-47
2022/05/05 09:40:14;;;;;;;;;;;;;;;-143.79;100.00;62634.88;5072624;28;19962;-47
2022/05/05 09:42:41;;;;;;;;;;;;;;;-143.79;100.00;62634.88;5073083;28;19921;-48
2022/05/05 09:45:26;;;;;;;;;;;;;;;-143.79;100.00;62634.88;5072158;28;20366;-47
2022/05/05 09:48:02;;;;;;;;;;;;;;;-143.79;100.00;62634.88;5057899;28;20175;-47
2022/05/05 09:50:32;;;;;;;;;;;19.60;90.30;;;-143.79;100.00;62634.88;5072882;28;20366;-47
2022/05/05 09:58:35;;;;;;;;;;;;;;;-143.79;100.00;62634.88;5072547;28;20031;-47
2022/05/05 10:01:09;;;;;;;;;;;;;;;-143.79;100.00;62634.88;5072047;28;20445;-48
2022/05/05 10:06:27;;;;;;;;;;;19.60;90.70;;;-143.79;100.00;62634.88;5072466;28;19962;-48
2022/05/05 10:08:55;;;;;;;;;;;19.70;92.30;;;-143.79;100.00;62634.88;5072374;28;19999;-47
2022/05/05 10:11:21;;;;;;;;;;;;;;;-143.79;100.00;62634.88;5072386;28;20430;-47
2022/05/05 10:13:47;;;;;;;;;;;;;;;-143.79;100.00;62634.88;5072384;28;20016;-47
2022/05/05 10:16:16;;;;;;;;;;;;;;;-143.79;100.00;62634.88;5072255;28;19952;-47
2022/05/05 10:18:42;;;;;;;;;;;;;;;-143.79;100.00;62634.88;5072288;28;19916;-46
2022/05/05 10:21:16;;;;;;;;;;;;;;;-143.79;100.00;62634.88;5072304;28;19962;-60
2022/05/05 10:24:05;;;;;;;;;;;;;;;-143.79;100.00;62634.88;5054432;28;19916;-60
2022/05/05 10:26:31;;;;;;;;;;;19.70;91.50;;;-143.79;100.00;62634.88;5072156;28;20390;-60
2022/05/05 10:28:57;;;;;;;;;;;;;;;-143.79;100.00;62634.88;5054437;28;20382;-60
2022/05/05 10:31:29;;;;;;;;;;;;;;;-143.79;100.00;62634.88;5072149;28;19934;-59
2022/05/05 10:34:02;;;;;;;;;;;;;;;-143.79;100.00;62634.88;5072158;28;19917;-59
2022/05/05 10:36:28;;;;;;;;;;;;;;;-143.79;100.00;62634.88;5072096;28;20386;-59
2022/05/05 10:38:55;;;;;;;;;;;;;;;-143.79;100.00;62634.88;5072410;28;19920;-59
2022/05/05 10:41:31;;;;;;;;;;;;;;;-143.79;100.00;62634.88;5054196;28;19960;-60
2022/05/05 10:44:15;;;;;;;;;;;;;;;-143.79;100.00;62634.88;5072032;28;19917;-59
2022/05/05 10:46:50;;;;;;;;;;;;;;;-143.79;100.00;62634.88;5072183;28;19920;-59
2022/05/05 10:49:38;;;;;;;;;;;19.80;91.50;;;-143.79;100.00;62634.88;5072338;28;19962;-58
2022/05/05 10:52:13;;;;;;;;;;;;;;;-143.79;100.00;62634.88;5071991;28;20015;-58
2022/05/05 10:54:43;;;;;;;;;;;20.00;91.20;;;-143.79;100.00;62634.88;5072068;28;20302;-51
2022/05/05 10:57:27;;;;;;;;;;;;;;;-143.79;100.00;62634.88;5054141;28;19917;-51
2022/05/05 11:00:11;;;;;;;;;;;20.00;90.90;;;-143.79;100.00;62634.88;5075487;28;19922;-52
2022/05/05 11:03:03;;;;;;;;;;;20.10;91.00;;;-143.79;100.00;62634.88;5075683;28;19940;-53
2022/05/05 11:05:30;;;;;;;;;;;;;;;-143.79;100.00;62634.88;5075366;28;20391;-54
2022/05/05 11:08:19;;;;;;;;;;;;;;;-143.79;100.00;62634.88;5075507;28;19916;-52
2022/05/05 11:11:39;;;;;;;;;;;20.30;90.50;;;-143.79;100.00;62634.88;5067234;28;19940;-52
2022/05/05 11:13:35;;;;;;;;;;;;;;;-143.79;100.00;62634.88;5075432;28;20302;-50
2022/05/05 11:22:04;;;;;;;;;;;;;;;-143.79;100.00;62634.88;5075217;28;20416;-52
2022/05/05 11:24:30;;;;;;;;;;;;;;;-143.79;100.00;62634.88;5075390;28;20256;-52
2022/05/05 11:26:56;;;;;;;;;;;;;;;-143.79;100.00;62634.88;5057126;28;19916;-52
2022/05/05 11:29:22;;;;;;;;;;;;;;;-143.79;100.00;62634.88;5075110;28;20430;-52
2022/05/05 11:31:58;;;;;;;;;;;;;;;-143.79;100.00;62634.88;5075023;28;19993;-53
2022/05/05 11:34:34;;;;;;;;;;;;;;;-143.79;100.00;62634.88;5075074;28;20294;-54
2022/05/05 11:37:00;;;;;;;;;;;;;;;-143.79;100.00;62634.88;5057054;28;19921;-51
2022/05/05 11:39:30;;;;;;;;;;;;;;;-143.79;100.00;62634.88;5075045;28;20379;-55
2022/05/05 11:42:00;;;;;;;;;;;;;;;-143.79;100.00;62634.88;5075152;28;20282;-53
2022/05/05 11:44:27;;;;;;;;;;;;;;;-143.79;100.00;62634.88;5075326;28;19927;-54
2022/05/05 11:46:54;;;;;;;;;;;20.90;90.10;;;-143.79;100.00;62634.88;5075027;28;20379;-53
2022/05/05 11:49:20;;;;;;;;;;;;;;;-143.79;100.00;62634.88;5075039;28;19920;-52
2022/05/05 11:51:47;;;;;;;;;;;;;;;-143.79;100.00;62634.88;5075050;28;20383;-51
2022/05/05 11:54:14;;;;;;;;;;;21.20;89.70;;;-143.79;100.00;62634.88;5075005;28;19916;-52
2022/05/05 11:56:45;;;;;;;;;;;;;;;-143.79;100.00;62634.88;5057121;28;19918;-52
2022/05/05 12:02:08;;;;;;;;;;;;;;;-143.79;100.00;62634.88;5074317;28;20414;-46
2022/05/05 12:04:37;;;;;;;;;;;21.20;85.60;;;-143.79;100.00;62634.88;5074411;28;19916;-45
2022/05/05 12:07:03;;;;;;;;;;;21.30;89.60;;;-143.79;100.00;62634.88;5074517;28;20349;-45
2022/05/05 12:09:29;;;;;;;;;;;;;;;-143.79;100.00;62634.88;5073837;28;19916;-48
2022/05/05 12:11:55;;;;;;;;;;;21.20;89.60;;;-143.79;100.00;62634.88;5074073;28;19916;-46
2022/05/05 12:14:22;;;;;;;;;;;;;;;-143.79;100.00;62634.88;5073919;28;20421;-46
2022/05/05 12:16:49;;;;;;;;;;;;;;;-143.79;100.00;62634.88;5074176;28;20011;-46
2022/05/05 12:19:17;;;;;;;;;;;21.00;89.20;;;-143.79;100.00;62634.88;5073682;28;19968;-47
2022/05/05 12:21:54;;;;;;;;;;;21.00;89.10;;;-143.79;100.00;62634.88;5073942;28;19997;-45
2022/05/05 12:24:22;;;;;;;;;;;;;;;-143.79;100.00;62634.88;5073825;28;19963;-46
2022/05/05 12:26:48;;;;;;;;;;;;;;;-143.79;100.00;62634.88;5073641;28;19923;-46
2022/05/05 12:29:14;;;;;;;;;;;;;;;-143.79;100.00;62634.88;5073421;28;19932;-50
2022/05/05 12:31:52;;;;;;;;;;;20.80;85.50;;;-143.79;100.00;62634.88;5073785;28;20016;-50
2022/05/05 12:34:25;;;;;;;;;;;;;;;-143.79;100.00;62634.88;5056410;28;20293;-48